createdAt,value
2022-08-17T00:02:26.012Z,95798.16
2022-08-17T00:04:54.436Z,95795.53
2022-08-17T00:07:21.272Z,95790.59
2022-08-17T00:09:47.815Z,95791.41
2022-08-17T00:12:40.799Z,95798.19
2022-08-17T00:15:01.111Z,95803.25
2022-08-17T00:17:27.908Z,95795.41
2022-08-17T00:19:54.401Z,95779.69
2022-08-17T00:22:32.278Z,95792.56
2022-08-17T00:25:05.302Z,95785.03
2022-08-17T00:27:31.861Z,95791.13
2022-08-17T00:29:58.385Z,95791.94
2022-08-17T00:33:16.082Z,95778.53
2022-08-17T00:35:15.214Z,95792.25
2022-08-17T00:37:42.086Z,95793.41
2022-08-17T00:40:12.520Z,95799.53
2022-08-17T00:42:39.482Z,95796.56
2022-08-17T00:45:09.411Z,95796.97
2022-08-17T00:47:36.131Z,95779.13
2022-08-17T00:50:06.482Z,95788.69
2022-08-17T00:52:37.634Z,95790.22
2022-08-17T00:55:06.151Z,95791.75
2022-08-17T00:57:42.113Z,95788.34
2022-08-17T01:00:21.277Z,95791.50
2022-08-17T01:02:48.908Z,95792.78
2022-08-17T01:05:19.580Z,95800.00
2022-08-17T01:07:50.806Z,95794.03
2022-08-17T01:10:57.358Z,95791.38
2022-08-17T01:13:10.724Z,95786.41
2022-08-17T01:15:41.368Z,95789.13
2022-08-17T01:18:14.008Z,95790.28
2022-08-17T01:20:49.324Z,95787.19
2022-08-17T01:23:20.432Z,95782.63
2022-08-17T01:25:54.104Z,95780.41
2022-08-17T01:28:53.191Z,95789.47
2022-08-17T01:31:09.062Z,95792.59
2022-08-17T01:33:36.384Z,95782.81
2022-08-17T01:36:04.160Z,95788.25
2022-08-17T01:38:31.908Z,95787.84
2022-08-17T01:41:06.906Z,95783.66
2022-08-17T01:43:41.371Z,95785.13
2022-08-17T01:46:07.992Z,95775.22
2022-08-17T01:48:39.451Z,95781.38
2022-08-17T01:51:07.536Z,95773.81
2022-08-17T01:53:42.595Z,95785.13
2022-08-17T01:56:12.229Z,95776.47
2022-08-17T01:58:39.805Z,95780.25
2022-08-17T02:01:08.230Z,95776.94
2022-08-17T02:03:36.666Z,95768.22
2022-08-17T02:06:05.576Z,95767.09
2022-08-17T02:09:01.999Z,95767.91
2022-08-17T02:11:29.245Z,95763.41
2022-08-17T02:14:02.355Z,95762.56
2022-08-17T02:16:37.652Z,95759.97
2022-08-17T02:19:11.211Z,95765.66
2022-08-17T02:21:39.247Z,95756.59
2022-08-17T02:24:08.251Z,95765.72
2022-08-17T02:26:34.813Z,95754.28
2022-08-17T02:29:01.420Z,95747.56
2022-08-17T02:31:27.879Z,95749.88
2022-08-17T02:34:03.507Z,95752.91
2022-08-17T02:36:31.077Z,95750.63
2022-08-17T02:38:58.657Z,95752.97
2022-08-17T02:41:25.272Z,95747.63
2022-08-17T02:43:53.143Z,95746.47
2022-08-17T02:46:19.701Z,95752.16
2022-08-17T02:48:46.264Z,95741.47
2022-08-17T02:51:12.735Z,95739.56
2022-08-17T02:53:39.198Z,95736.22
2022-08-17T02:56:05.849Z,95735.50
2022-08-17T02:58:35.430Z,95740.13
2022-08-17T03:01:04.704Z,95734.78
2022-08-17T03:03:31.357Z,95742.44
2022-08-17T03:05:57.901Z,95739.09
2022-08-17T03:08:25.390Z,95726.56
2022-08-17T03:10:51.912Z,95734.13
2022-08-17T03:13:18.504Z,95740.53
2022-08-17T03:15:46.326Z,95744.09
2022-08-17T03:18:24.098Z,95741.13
2022-08-17T03:20:51.665Z,95736.56
2022-08-17T03:23:18.768Z,95741.13
2022-08-17T03:25:50.552Z,95731.25
2022-08-17T03:28:20.667Z,95742.97
2022-08-17T03:30:47.227Z,95735.06
2022-08-17T03:33:14.138Z,95732.72
2022-08-17T03:35:41.040Z,95732.75
2022-08-17T03:38:10.082Z,95735.47
2022-08-17T03:40:58.020Z,95739.28
2022-08-17T03:43:23.880Z,95738.13
2022-08-17T03:46:11.072Z,95741.94
2022-08-17T03:49:14.225Z,95732.84
2022-08-17T03:51:59.213Z,95738.16
2022-08-17T03:54:44.745Z,95730.59
2022-08-17T03:57:12.499Z,95734.06
2022-08-17T03:59:39.694Z,95730.31
2022-08-17T04:02:24.125Z,95725.44
2022-08-17T04:04:51.234Z,95721.94
2022-08-17T04:07:20.772Z,95735.59
2022-08-17T04:09:47.371Z,95737.91
2022-08-17T04:12:18.581Z,95735.66
2022-08-17T04:14:51.940Z,95725.41
2022-08-17T04:17:21.368Z,95733.38
2022-08-17T04:19:47.840Z,95740.97
2022-08-17T04:22:33.203Z,95733.34
2022-08-17T04:25:06.362Z,95727.59
2022-08-17T04:27:32.848Z,95733.66
2022-08-17T04:29:59.350Z,95738.97
2022-08-17T04:33:04.351Z,95729.44
2022-08-17T04:35:12.404Z,95744.28
2022-08-17T04:37:38.994Z,95737.41
2022-08-17T04:40:25.955Z,95744.19
2022-08-17T04:43:09.413Z,95741.84
2022-08-17T04:45:55.282Z,95754.75
2022-08-17T04:48:35.744Z,95750.47
2022-08-17T04:51:09.761Z,95755.72
2022-08-17T04:53:37.443Z,95754.88
2022-08-17T04:56:04.464Z,95750.03
2022-08-17T04:58:30.934Z,95772.25
2022-08-17T05:00:57.571Z,95771.44
2022-08-17T05:03:24.229Z,95763.72
2022-08-17T05:05:51.136Z,95769.63
2022-08-17T05:08:20.212Z,95777.03
2022-08-17T05:10:47.805Z,95772.25
2022-08-17T05:13:20.455Z,95781.94
2022-08-17T05:15:48.404Z,95782.25
2022-08-17T05:18:16.601Z,95769.50
2022-08-17T05:20:43.960Z,95776.22
2022-08-17T05:23:13.988Z,95771.78
2022-08-17T05:25:49.154Z,95772.31
2022-08-17T05:28:19.706Z,95775.88
2022-08-17T05:30:51.521Z,95777.63
2022-08-17T05:33:24.279Z,95781.91
2022-08-17T05:35:54.455Z,95774.41
2022-08-17T05:38:23.703Z,95774.22
2022-08-17T05:40:50.266Z,95760.22
2022-08-17T05:43:22.791Z,95750.91
2022-08-17T05:45:56.432Z,95752.13
2022-08-17T05:48:39.208Z,95748.84
2022-08-17T05:51:32.948Z,95740.16
2022-08-17T05:54:20.409Z,95751.28
2022-08-17T05:57:14.753Z,95758.13
2022-08-17T05:59:44.308Z,95759.19
2022-08-17T06:02:10.797Z,95761.41
2022-08-17T06:04:59.757Z,95758.81
2022-08-17T06:07:46.077Z,95755.28
2022-08-17T06:10:50.814Z,95753.13
2022-08-17T06:13:47.812Z,95749.84
2022-08-17T06:16:32.880Z,95747.00
2022-08-17T06:19:11.577Z,95749.09
2022-08-17T06:21:41.195Z,95739.94
2022-08-17T06:24:28.902Z,95738.59
2022-08-17T06:26:59.988Z,95745.28
2022-08-17T06:29:49.550Z,95744.00
2022-08-17T06:32:17.201Z,95756.72
2022-08-17T06:34:45.787Z,95755.38
2022-08-17T06:37:40.703Z,95759.09
2022-08-17T06:40:35.161Z,95760.44
2022-08-17T06:43:14.169Z,95762.28
2022-08-17T06:45:49.406Z,95758.19
2022-08-17T06:48:25.385Z,95760.16
2022-08-17T06:51:00.717Z,95759.47
2022-08-17T06:53:35.457Z,95757.81
2022-08-17T06:56:08.763Z,95761.19
2022-08-17T06:58:37.431Z,95759.50
2022-08-17T07:01:10.385Z,95758.84
2022-08-17T07:03:54.782Z,95769.38
2022-08-17T07:06:26.520Z,95776.94
2022-08-17T07:08:55.851Z,95783.94
2022-08-17T07:11:50.894Z,95788.63
2022-08-17T07:14:31.867Z,95782.09
2022-08-17T07:17:02.706Z,95786.38
2022-08-17T07:19:32.816Z,95780.22
2022-08-17T07:22:02.162Z,95777.53
2022-08-17T07:24:49.234Z,95777.50
2022-08-17T07:27:18.159Z,95774.63
2022-08-17T07:30:19.409Z,95781.97
2022-08-17T07:32:57.829Z,95786.34
2022-08-17T07:35:31.241Z,95792.56
2022-08-17T07:38:24.776Z,95797.84
2022-08-17T07:41:01.903Z,95805.72
2022-08-17T07:43:48.529Z,95812.88
2022-08-17T07:46:50.489Z,95803.91
2022-08-17T07:49:23.618Z,95811.19
2022-08-17T07:51:50.474Z,95811.19
2022-08-17T07:54:22.601Z,95819.69
2022-08-17T07:56:56.448Z,95823.91
2022-08-17T07:59:33.769Z,95821.53
2022-08-17T08:02:05.877Z,95820.03
2022-08-17T08:04:59.661Z,95819.94
2022-08-17T08:07:31.868Z,95822.13
2022-08-17T08:10:07.672Z,95832.78
2022-08-17T08:12:38.539Z,95831.03
2022-08-17T08:15:21.843Z,95839.22
2022-08-17T08:17:48.634Z,95834.72
2022-08-17T08:20:47.765Z,95837.50
2022-08-17T08:23:29.587Z,95828.50
2022-08-17T08:26:18.709Z,95820.88
2022-08-17T08:29:00.437Z,95824.59
2022-08-17T08:31:32.663Z,95836.59
2022-08-17T08:34:44.588Z,95836.56
2022-08-17T08:37:56.189Z,95823.66
2022-08-17T08:40:36.251Z,95823.75
2022-08-17T08:43:22.977Z,95809.13
2022-08-17T08:46:05.574Z,95806.38
2022-08-17T08:49:06.575Z,95805.97
2022-08-17T08:51:50.711Z,95809.06
2022-08-17T08:54:52.138Z,95807.09
2022-08-17T08:57:27.809Z,95817.38
2022-08-17T09:00:07.220Z,95814.03
2022-08-17T09:03:07.371Z,95810.22
2022-08-17T09:05:42.815Z,95804.19
2022-08-17T09:08:22.050Z,95814.47
2022-08-17T09:11:03.672Z,95815.81
2022-08-17T09:13:39.564Z,95816.66
2022-08-17T09:16:15.347Z,95807.47
2022-08-17T09:19:01.263Z,95818.78
2022-08-17T09:21:47.795Z,95818.41
2022-08-17T09:24:43.864Z,95820.00
2022-08-17T09:27:28.793Z,95807.81
2022-08-17T09:30:00.455Z,95801.56
2022-08-17T09:32:56.376Z,95803.09
2022-08-17T09:35:33.788Z,95806.00
2022-08-17T09:38:32.343Z,95794.13
2022-08-17T09:41:03.832Z,95796.22
2022-08-17T09:43:43.739Z,95795.75
2022-08-17T09:46:25.011Z,95792.66
2022-08-17T09:49:03.460Z,95791.59
2022-08-17T09:51:40.115Z,95797.34
2022-08-17T09:54:38.619Z,95803.63
2022-08-17T09:57:31.767Z,95795.22
2022-08-17T10:00:16.294Z,95800.22
2022-08-17T10:03:08.687Z,95793.31
2022-08-17T10:05:57.217Z,95799.81
2022-08-17T10:08:32.800Z,95798.97
2022-08-17T10:11:18.411Z,95808.84
2022-08-17T10:14:36.822Z,95811.44
2022-08-17T10:17:24.344Z,95801.63
2022-08-17T10:20:12.541Z,95795.56
2022-08-17T10:22:57.599Z,95794.53
2022-08-17T10:25:54.520Z,95789.91
2022-08-17T10:38:56.866Z,95798.22
2022-08-17T10:41:32.568Z,95804.69
2022-08-17T10:44:39.013Z,95797.47
2022-08-17T10:47:15.935Z,95796.72
2022-08-17T10:49:47.782Z,95797.31
2022-08-17T10:52:20.388Z,95803.97
2022-08-17T10:55:08.691Z,95805.09
2022-08-17T10:57:42.234Z,95797.31
2022-08-17T11:00:57.898Z,95791.13
2022-08-17T11:03:26.065Z,95796.34
2022-08-17T11:05:59.465Z,95792.25
2022-08-17T11:08:45.389Z,95778.06
2022-08-17T11:11:35.920Z,95776.91
2022-08-17T11:14:07.529Z,95778.81
2022-08-17T11:16:50.788Z,95775.66
2022-08-17T11:19:34.329Z,95772.66
2022-08-17T11:22:34.341Z,95777.03
2022-08-17T11:25:20.189Z,95773.81
2022-08-17T11:27:54.221Z,95771.59
2022-08-17T11:30:40.999Z,95770.50
2022-08-17T11:33:28.950Z,95774.94
2022-08-17T11:36:12.217Z,95773.44
2022-08-17T11:38:58.046Z,95768.91
2022-08-17T11:41:43.065Z,95774.69
2022-08-17T11:44:37.714Z,95772.63
2022-08-17T11:48:23.723Z,95780.13
2022-08-17T11:51:17.222Z,95789.09
2022-08-17T11:53:43.649Z,95790.72
2022-08-17T11:56:30.048Z,95779.25
2022-08-17T11:58:56.532Z,95775.88
2022-08-17T12:01:22.948Z,95782.28
2022-08-17T12:03:58.957Z,95780.13
2022-08-17T12:06:46.679Z,95781.47
2022-08-17T12:09:19.974Z,95779.50
2022-08-17T12:12:11.955Z,95773.78
2022-08-17T12:15:08.899Z,95779.69
2022-08-17T12:17:39.228Z,95771.69
2022-08-17T12:20:22.058Z,95770.63
2022-08-17T12:23:09.164Z,95768.03
2022-08-17T12:26:01.850Z,95771.19
2022-08-17T12:28:35.748Z,95771.94
2022-08-17T12:31:24.821Z,95784.03
2022-08-17T12:33:51.845Z,95781.47
2022-08-17T12:36:24.715Z,95767.34
2022-08-17T12:39:00.098Z,95770.16
2022-08-17T12:41:47.491Z,95772.03
2022-08-17T12:44:19.644Z,95774.53
2022-08-17T12:46:59.298Z,95775.28
2022-08-17T12:49:28.307Z,95770.75
2022-08-17T12:52:02.134Z,95761.06
2022-08-17T12:54:38.367Z,95771.13
2022-08-17T12:57:12.570Z,95763.94
2022-08-17T12:59:46.223Z,95775.47
2022-08-17T13:02:52.755Z,95774.97
2022-08-17T13:05:34.957Z,95767.34
2022-08-17T13:08:05.989Z,95768.16
2022-08-17T13:10:34.169Z,95772.41
2022-08-17T13:13:05.315Z,95758.34
2022-08-17T13:15:36.977Z,95756.47
2022-08-17T13:18:10.371Z,95744.81
2022-08-17T13:20:37.204Z,95742.34
2022-08-17T13:23:11.949Z,95749.97
2022-08-17T13:25:39.203Z,95743.81
2022-08-17T13:28:05.732Z,95741.44
2022-08-17T13:30:33.447Z,95738.03
2022-08-17T13:33:04.662Z,95742.53
2022-08-17T13:35:39.357Z,95743.50
2022-08-17T13:38:11.019Z,95733.41
2022-08-17T13:40:50.043Z,95732.81
2022-08-17T13:43:48.388Z,95727.22
2022-08-17T13:46:26.203Z,95734.69
2022-08-17T13:49:06.348Z,95737.81
2022-08-17T13:51:44.367Z,95733.66
2022-08-17T13:54:27.776Z,95744.28
2022-08-17T13:56:58.775Z,95740.63
2022-08-17T13:59:36.405Z,95738.03
2022-08-17T14:02:19.410Z,95743.75
2022-08-17T14:04:47.515Z,95720.56
2022-08-17T14:07:15.360Z,95731.09
2022-08-17T14:09:50.183Z,95725.31
2022-08-17T14:12:21.640Z,95726.88
2022-08-17T14:14:49.560Z,95733.19
2022-08-17T14:17:16.110Z,95717.78
2022-08-17T14:19:42.808Z,95725.41
2022-08-17T14:22:30.582Z,95711.69
2022-08-17T14:24:59.013Z,95719.00
2022-08-17T14:27:28.076Z,95710.31
2022-08-17T14:29:56.332Z,95717.78
2022-08-17T14:32:32.398Z,95707.88
2022-08-17T14:34:59.851Z,95718.88
2022-08-17T14:37:28.447Z,95719.28
2022-08-17T14:39:59.815Z,95710.09
2022-08-17T14:42:30.890Z,95711.69
2022-08-17T14:45:05.967Z,95717.72
2022-08-17T14:47:37.340Z,95714.03
2022-08-17T14:50:06.521Z,95710.38
2022-08-17T14:52:35.953Z,95712.91
2022-08-17T14:55:02.513Z,95715.16
2022-08-17T14:57:33.658Z,95720.50
2022-08-17T15:00:01.586Z,95704.53
2022-08-17T15:02:29.696Z,95711.09
2022-08-17T15:05:02.224Z,95701.69
2022-08-17T15:07:30.533Z,95696.06
2022-08-17T15:09:58.738Z,95698.09
2022-08-17T15:12:31.996Z,95688.16
2022-08-17T15:15:00.661Z,95696.72
2022-08-17T15:17:27.186Z,95678.75
2022-08-17T15:20:17.413Z,95677.22
2022-08-17T15:22:45.983Z,95677.28
2022-08-17T15:25:13.368Z,95677.53
2022-08-17T15:27:40.242Z,95673.59
2022-08-17T15:30:08.574Z,95675.91
2022-08-17T15:32:38.564Z,95669.09
2022-08-17T15:35:08.840Z,95674.78
2022-08-17T15:37:36.436Z,95673.59
2022-08-17T15:40:05.336Z,95671.06
2022-08-17T15:42:32.412Z,95667.47
2022-08-17T15:44:59.883Z,95678.41
2022-08-17T15:47:26.472Z,95672.75
2022-08-17T15:49:57.923Z,95673.78
2022-08-17T15:52:29.759Z,95682.47
2022-08-17T15:55:01.088Z,95681.19
2022-08-17T15:57:27.875Z,95676.53
2022-08-17T15:59:58.972Z,95688.50
2022-08-17T16:03:46.051Z,95681.13
2022-08-17T16:05:22.043Z,95681.81
2022-08-17T16:07:52.069Z,95648.13
2022-08-17T16:10:19.514Z,95681.88
2022-08-17T16:12:48.006Z,95685.59
2022-08-17T16:15:15.203Z,95679.44
2022-08-17T16:17:42.097Z,95678.44
2022-08-17T16:20:19.583Z,95675.75
2022-08-17T16:22:48.877Z,95683.22
2022-08-17T16:25:22.222Z,95677.53
2022-08-17T16:27:53.503Z,95685.75
2022-08-17T16:30:23.667Z,95670.63
2022-08-17T16:32:51.786Z,95654.28
2022-08-17T16:35:21.978Z,95661.94
2022-08-17T16:37:48.785Z,95659.66
2022-08-17T16:40:16.826Z,95672.31
2022-08-17T16:42:45.625Z,95660.41
2022-08-17T16:45:22.308Z,95664.88
2022-08-17T16:47:50.243Z,95669.34
2022-08-17T16:50:20.431Z,95663.13
2022-08-17T16:52:48.438Z,95664.59
2022-08-17T16:55:18.181Z,95677.97
2022-08-17T16:57:47.210Z,95681.63
2022-08-17T17:00:19.338Z,95666.69
2022-08-17T17:02:49.356Z,95673.78
2022-08-17T17:05:45.185Z,95678.16
2022-08-17T17:08:37.501Z,95675.41
2022-08-17T17:11:14.592Z,95675.88
2022-08-17T17:13:48.538Z,95677.88
2022-08-17T17:16:33.219Z,95676.13
2022-08-17T17:19:17.966Z,95668.06
2022-08-17T17:22:15.330Z,95663.50
2022-08-17T17:24:41.716Z,95666.44
2022-08-17T17:27:21.158Z,95658.97
2022-08-17T17:30:14.640Z,95661.09
2022-08-17T17:32:54.522Z,95654.47
2022-08-17T17:35:31.700Z,95658.53
2022-08-17T17:38:03.706Z,95648.72
2022-08-17T17:40:41.802Z,95622.97
2022-08-17T17:43:37.066Z,95644.25
2022-08-17T17:46:21.880Z,95649.66
2022-08-17T17:48:53.869Z,95649.84
2022-08-17T17:52:08.874Z,95647.13
2022-08-17T17:54:43.373Z,95652.75
2022-08-17T17:57:21.302Z,95650.50
2022-08-17T18:00:03.499Z,95651.59
2022-08-17T18:02:51.888Z,95653.19
2022-08-17T18:05:54.452Z,95643.75
2022-08-17T18:08:34.324Z,95648.16
2022-08-17T18:11:07.401Z,95648.91
2022-08-17T18:13:42.564Z,95640.94
2022-08-17T18:16:13.150Z,95644.03
2022-08-17T18:18:47.157Z,95631.69
2022-08-17T18:21:19.293Z,95635.31
2022-08-17T18:23:48.588Z,95639.22
2022-08-17T18:27:08.293Z,95643.44
2022-08-17T18:29:42.697Z,95634.00
2022-08-17T18:32:23.834Z,95625.66
2022-08-17T18:34:55.079Z,95635.31
2022-08-17T18:41:23.680Z,95629.56
2022-08-17T18:44:19.213Z,95625.84
2022-08-17T18:46:45.694Z,95634.47
2022-08-17T18:49:28.908Z,95625.09
2022-08-17T18:52:21.495Z,95632.59
2022-08-17T18:55:12.598Z,95641.22
2022-08-17T18:57:44.550Z,95639.75
2022-08-17T19:00:35.891Z,95639.47
2022-08-17T19:03:19.848Z,95648.19
2022-08-17T19:13:51.445Z,95640.78
2022-08-17T19:16:28.540Z,95648.44
2022-08-17T19:19:09.550Z,95639.63
2022-08-17T19:21:40.705Z,95631.81
2022-08-17T19:24:20.941Z,95621.19
2022-08-17T19:26:57.511Z,95615.97
2022-08-17T19:29:37.193Z,95628.38
2022-08-17T19:32:06.412Z,95625.53
2022-08-17T19:34:35.868Z,95621.34
2022-08-17T19:37:17.462Z,95632.72
2022-08-17T19:39:52.671Z,95630.63
2022-08-17T19:42:25.133Z,95640.47
2022-08-17T19:45:03.728Z,95644.38
2022-08-17T19:47:53.842Z,95652.91
2022-08-17T19:50:28.309Z,95660.22
2022-08-17T19:53:13.579Z,95671.88
2022-08-17T19:55:58.731Z,95670.34
2022-08-17T19:58:40.072Z,95668.22
2022-08-17T20:01:13.929Z,95674.06
2022-08-17T20:04:13.123Z,95661.66
2022-08-17T20:06:44.345Z,95657.41
2022-08-17T20:09:22.301Z,95647.66
2022-08-17T20:11:55.542Z,95652.91
2022-08-17T20:14:30.959Z,95644.19
2022-08-17T20:17:02.471Z,95632.19
2022-08-17T20:19:37.320Z,95628.28
2022-08-17T20:22:10.521Z,95623.78
2022-08-17T20:24:52.535Z,95639.63
2022-08-17T20:27:31.297Z,95630.91
2022-08-17T20:29:57.856Z,95640.94
2022-08-17T20:32:33.011Z,95633.84
2022-08-17T20:35:18.420Z,95637.72
2022-08-17T20:37:53.918Z,95645.03
2022-08-17T20:40:25.935Z,95652.66
2022-08-17T20:42:52.705Z,95648.59
2022-08-17T20:45:21.917Z,95640.22
2022-08-17T20:48:18.643Z,95634.84
2022-08-17T20:50:43.852Z,95638.00
2022-08-17T20:53:13.477Z,95637.72
2022-08-17T20:55:52.025Z,95633.53
2022-08-17T20:58:30.833Z,95636.41
2022-08-17T21:00:57.709Z,95629.38
2022-08-17T21:03:24.347Z,95620.44
2022-08-17T21:06:11.074Z,95617.28
2022-08-17T21:08:53.226Z,95620.44
2022-08-17T21:11:58.194Z,95634.16
2022-08-17T21:14:57.422Z,95631.88
2022-08-17T21:17:36.392Z,95618.13
2022-08-17T21:20:25.404Z,95621.88
2022-08-17T21:23:01.251Z,95627.25
2022-08-17T21:25:49.461Z,95621.28
2022-08-17T21:28:33.792Z,95621.56
2022-08-17T21:31:08.546Z,95619.50
2022-08-17T21:33:39.545Z,95604.34
2022-08-17T21:36:12.029Z,95602.13
2022-08-17T21:38:53.426Z,95605.56
2022-08-17T21:41:31.931Z,95600.16
2022-08-17T21:44:12.927Z,95600.31
2022-08-17T21:46:42.982Z,95607.81
2022-08-17T21:49:16.803Z,95595.88
2022-08-17T21:51:53.773Z,95592.28
2022-08-17T21:54:36.869Z,95591.09
2022-08-17T21:57:08.026Z,95591.28
2022-08-17T21:59:39.881Z,95592.94
2022-08-17T22:02:17.761Z,95594.19
2022-08-17T22:04:59.272Z,95590.28
2022-08-17T22:07:45.104Z,95578.34
2022-08-17T22:10:36.988Z,95586.69
2022-08-17T22:13:18.443Z,95583.00
2022-08-17T22:15:50.259Z,95577.59
2022-08-17T22:18:25.114Z,95578.94
2022-08-17T22:20:54.802Z,95581.94
2022-08-17T22:23:58.694Z,95572.50
2022-08-17T22:26:47.093Z,95566.97
2022-08-17T22:29:46.873Z,95572.34
2022-08-17T22:32:44.733Z,95579.06
2022-08-17T22:35:35.326Z,95578.63
2022-08-17T22:38:19.817Z,95580.69
2022-08-17T22:41:18.893Z,95587.28
2022-08-17T22:43:45.456Z,95585.94
2022-08-17T22:46:12.574Z,95575.47
2022-08-17T22:48:48.518Z,95572.31
2022-08-17T22:51:20.537Z,95557.03
2022-08-17T22:54:13.025Z,95570.94
2022-08-17T22:57:13.075Z,95587.63
2022-08-17T22:59:47.639Z,95576.41
2022-08-17T23:02:17.255Z,95564.44
2022-08-17T23:04:47.844Z,95567.41
2022-08-17T23:07:15.272Z,95574.00
2022-08-17T23:09:41.854Z,95563.69
2022-08-17T23:12:17.788Z,95579.84
2022-08-17T23:14:46.855Z,95582.97
2022-08-17T23:17:13.637Z,95587.63
2022-08-17T23:19:40.249Z,95593.63
2022-08-17T23:22:09.509Z,95584.94
2022-08-17T23:24:43.349Z,95590.34
2022-08-17T23:27:10.800Z,95596.16
2022-08-17T23:29:42.058Z,95595.41
2022-08-17T23:32:14.802Z,95598.84
2022-08-17T23:34:43.521Z,95598.88
2022-08-17T23:37:11.950Z,95599.78
2022-08-17T23:39:39.451Z,95605.16
2022-08-17T23:42:10.916Z,95607.44
2022-08-17T23:44:39.453Z,95614.63
2022-08-17T23:47:07.711Z,95599.59
2022-08-17T23:49:36.067Z,95601.41
2022-08-17T23:52:07.079Z,95598.72
2022-08-17T23:54:43.488Z,95606.53
2022-08-17T23:57:12.896Z,95606.66
2022-08-17T23:59:40.085Z,95609.97
